CFG1EZ EDDM-LEPA
Flight info
| Callsign | CFG1EZ |
|---|---|
| Flight time | 1h 47m |
| Altitude | 35000 |
| Route | TURBU7Q TURBU Y107 TOBSO DCT BAKOR DCT SUMIR DCT MISPO DCT PIDAD DCT TALEP DCT RARQU DCT BALEN UT250 RIXOT |
| Aircraft | A321/M-SDE3FGHIRWY/LB1 |
Departure
| Time | 2026-04-30 21:01 |
|---|---|
| Airport | Munich Airport (EDDM) |
Arrival
| Time | 2026-04-30 22:48 |
|---|---|
| Airport | Palma de Mallorca Airport (LEPA) |
| Time | Latitude | Longitude | Altitude | Speed | Heading |
|---|---|---|---|---|---|
| 2026-04-30 20:18 | 48.35497 | 11.77663 | 1477 ft | 0 kts | 263° |
| 2026-04-30 20:18 | 48.35496 | 11.77648 | 1478 ft | 0 kts | 263° |
| 2026-04-30 20:19 | 48.35496 | 11.77650 | 1478 ft | 0 kts | 263° |
| 2026-04-30 20:50 | 48.35497 | 11.77658 | 1512 ft | 4 kts | 263° |
| 2026-04-30 20:50 | 48.35500 | 11.77695 | 1482 ft | 2 kts | 263° |
| 2026-04-30 20:51 | 48.35501 | 11.77729 | 1475 ft | 4 kts | 286° |
| 2026-04-30 20:51 | 48.35463 | 11.77763 | 1477 ft | 3 kts | 353° |
| 2026-04-30 20:51 | 48.35460 | 11.77763 | 1475 ft | 0 kts | 353° |
| 2026-04-30 20:54 | 48.35467 | 11.77762 | 1479 ft | 4 kts | 353° |
| 2026-04-30 20:54 | 48.35520 | 11.77753 | 1473 ft | 12 kts | 353° |
| 2026-04-30 20:54 | 48.35616 | 11.77736 | 1475 ft | 14 kts | 353° |
| 2026-04-30 20:55 | 48.35793 | 11.77706 | 1481 ft | 11 kts | 353° |
| 2026-04-30 20:55 | 48.35869 | 11.77693 | 1486 ft | 11 kts | 353° |
| 2026-04-30 20:55 | 48.35948 | 11.77679 | 1476 ft | 12 kts | 353° |
| 2026-04-30 20:56 | 48.36068 | 11.77571 | 1478 ft | 11 kts | 265° |
| 2026-04-30 20:56 | 48.36059 | 11.77454 | 1477 ft | 11 kts | 263° |
| 2026-04-30 20:56 | 48.36040 | 11.77218 | 1486 ft | 11 kts | 263° |
| 2026-04-30 20:57 | 48.36023 | 11.77099 | 1479 ft | 12 kts | 244° |
| 2026-04-30 20:57 | 48.36021 | 11.76986 | 1479 ft | 11 kts | 316° |
| 2026-04-30 20:57 | 48.36097 | 11.76962 | 1476 ft | 12 kts | 354° |
| 2026-04-30 20:58 | 48.36172 | 11.76949 | 1483 ft | 0 kts | 352° |
| 2026-04-30 20:59 | 48.36216 | 11.76941 | 1481 ft | 12 kts | 354° |
| 2026-04-30 20:59 | 48.36289 | 11.76965 | 1475 ft | 7 kts | 49° |
| 2026-04-30 21:00 | 48.36322 | 11.77335 | 1485 ft | 62 kts | 83° |
| 2026-04-30 21:00 | 48.36467 | 11.79231 | 1471 ft | 150 kts | 83° |
| 2026-04-30 21:01 | 48.36759 | 11.83347 | 2502 ft | 176 kts | 84° |
| 2026-04-30 21:01 | 48.36851 | 11.84602 | 2841 ft | 181 kts | 83° |
| 2026-04-30 21:01 | 48.37169 | 11.88514 | 3459 ft | 200 kts | 83° |
| 2026-04-30 21:02 | 48.37354 | 11.90643 | 3779 ft | 216 kts | 82° |
| 2026-04-30 21:02 | 48.37557 | 11.92968 | 4171 ft | 230 kts | 83° |
| 2026-04-30 21:02 | 48.37742 | 11.95372 | 4934 ft | 232 kts | 84° |
| 2026-04-30 21:02 | 48.37790 | 11.97781 | 5792 ft | 229 kts | 100° |
| 2026-04-30 21:03 | 48.37136 | 11.99973 | 6570 ft | 234 kts | 127° |
| 2026-04-30 21:03 | 48.35880 | 12.01591 | 7220 ft | 243 kts | 146° |
| 2026-04-30 21:03 | 48.34331 | 12.02628 | 7854 ft | 252 kts | 161° |
| 2026-04-30 21:03 | 48.32525 | 12.02987 | 8197 ft | 275 kts | 179° |
| 2026-04-30 21:04 | 48.30581 | 12.02856 | 8730 ft | 283 kts | 179° |
| 2026-04-30 21:04 | 48.28587 | 12.02728 | 9399 ft | 288 kts | 178° |
| 2026-04-30 21:04 | 48.24505 | 12.02485 | 10689 ft | 297 kts | 178° |
| 2026-04-30 21:05 | 48.22427 | 12.02367 | 11304 ft | 301 kts | 179° |
| 2026-04-30 21:05 | 48.20315 | 12.02250 | 11895 ft | 306 kts | 179° |
| 2026-04-30 21:05 | 48.18175 | 12.02129 | 12508 ft | 310 kts | 179° |
| 2026-04-30 21:05 | 48.16006 | 12.02003 | 13128 ft | 314 kts | 179° |
| 2026-04-30 21:06 | 48.13810 | 12.01874 | 13728 ft | 318 kts | 179° |
| 2026-04-30 21:06 | 48.11602 | 12.01744 | 14319 ft | 323 kts | 179° |
| 2026-04-30 21:06 | 48.09346 | 12.01613 | 14853 ft | 327 kts | 179° |
| 2026-04-30 21:06 | 48.07059 | 12.01362 | 15383 ft | 333 kts | 187° |
| 2026-04-30 21:07 | 48.04760 | 12.00532 | 15608 ft | 350 kts | 194° |
| 2026-04-30 21:07 | 48.02348 | 11.99518 | 15736 ft | 368 kts | 194° |
| 2026-04-30 21:07 | 47.99830 | 11.98447 | 15863 ft | 385 kts | 194° |
| 2026-04-30 21:07 | 47.97196 | 11.97324 | 15991 ft | 401 kts | 194° |
| 2026-04-30 21:08 | 47.94458 | 11.96165 | 16116 ft | 416 kts | 194° |
| 2026-04-30 21:08 | 47.91605 | 11.95118 | 16239 ft | 428 kts | 187° |
| 2026-04-30 21:08 | 47.88608 | 11.94794 | 16371 ft | 438 kts | 179° |
| 2026-04-30 21:08 | 47.85518 | 11.94740 | 16565 ft | 447 kts | 178° |
| 2026-04-30 21:09 | 47.82389 | 11.94692 | 16934 ft | 452 kts | 178° |
| 2026-04-30 21:09 | 47.79232 | 11.94642 | 17334 ft | 456 kts | 179° |
| 2026-04-30 21:09 | 47.76039 | 11.94585 | 17737 ft | 460 kts | 178° |
| 2026-04-30 21:09 | 47.72821 | 11.94528 | 18132 ft | 463 kts | 179° |
| 2026-04-30 21:10 | 47.69585 | 11.94471 | 18539 ft | 467 kts | 179° |
| 2026-04-30 21:10 | 47.66364 | 11.94416 | 18895 ft | 471 kts | 179° |
| 2026-04-30 21:10 | 47.63073 | 11.94360 | 19277 ft | 473 kts | 178° |
| 2026-04-30 21:10 | 47.59771 | 11.94303 | 19599 ft | 476 kts | 178° |
| 2026-04-30 21:11 | 47.56454 | 11.94247 | 19893 ft | 479 kts | 178° |
| 2026-04-30 21:11 | 47.53098 | 11.94191 | 20239 ft | 483 kts | 178° |
| 2026-04-30 21:11 | 47.49732 | 11.94134 | 20580 ft | 485 kts | 178° |
| 2026-04-30 21:11 | 47.46340 | 11.94074 | 20904 ft | 488 kts | 178° |
| 2026-04-30 21:12 | 47.42933 | 11.93932 | 21245 ft | 493 kts | 182° |
| 2026-04-30 21:12 | 47.39516 | 11.93312 | 21574 ft | 496 kts | 185° |
| 2026-04-30 21:12 | 47.36083 | 11.92619 | 21939 ft | 499 kts | 186° |
| 2026-04-30 21:12 | 47.32635 | 11.91924 | 22236 ft | 502 kts | 185° |
| 2026-04-30 21:13 | 47.29164 | 11.91228 | 22550 ft | 504 kts | 185° |
| 2026-04-30 21:13 | 47.25681 | 11.90533 | 22815 ft | 507 kts | 185° |
| 2026-04-30 21:13 | 47.22174 | 11.89838 | 23133 ft | 509 kts | 185° |
| 2026-04-30 21:13 | 47.18649 | 11.89142 | 23483 ft | 512 kts | 185° |
| 2026-04-30 21:14 | 47.15150 | 11.88451 | 23829 ft | 515 kts | 185° |
| 2026-04-30 21:14 | 47.11590 | 11.87747 | 24108 ft | 518 kts | 185° |
| 2026-04-30 21:14 | 47.08011 | 11.87033 | 24473 ft | 517 kts | 185° |
| 2026-04-30 21:14 | 47.04453 | 11.86327 | 24976 ft | 515 kts | 185° |
| 2026-04-30 21:15 | 47.00901 | 11.85601 | 25382 ft | 514 kts | 186° |
| 2026-04-30 21:15 | 46.97372 | 11.84706 | 25716 ft | 516 kts | 189° |
| 2026-04-30 21:15 | 46.93859 | 11.83624 | 26066 ft | 516 kts | 190° |
| 2026-04-30 21:15 | 46.90368 | 11.82423 | 26437 ft | 514 kts | 191° |
| 2026-04-30 21:16 | 46.86895 | 11.81187 | 26737 ft | 514 kts | 191° |
| 2026-04-30 21:16 | 46.83406 | 11.79964 | 27093 ft | 514 kts | 190° |
| 2026-04-30 21:16 | 46.79922 | 11.78794 | 27445 ft | 513 kts | 190° |
| 2026-04-30 21:16 | 46.76482 | 11.77690 | 27835 ft | 512 kts | 190° |
| 2026-04-30 21:17 | 46.72997 | 11.76607 | 28168 ft | 511 kts | 189° |
| 2026-04-30 21:17 | 46.69524 | 11.75541 | 28653 ft | 509 kts | 189° |
| 2026-04-30 21:17 | 46.66066 | 11.74475 | 29057 ft | 507 kts | 190° |
| 2026-04-30 21:17 | 46.62676 | 11.73048 | 29440 ft | 508 kts | 199° |
| 2026-04-30 21:18 | 46.59446 | 11.70936 | 29811 ft | 510 kts | 208° |
| 2026-04-30 21:18 | 46.56452 | 11.68185 | 30113 ft | 510 kts | 216° |
| 2026-04-30 21:18 | 46.53602 | 11.65123 | 30481 ft | 508 kts | 216° |
| 2026-04-30 21:18 | 46.50759 | 11.62091 | 30819 ft | 506 kts | 216° |
| 2026-04-30 21:19 | 46.47914 | 11.59079 | 31152 ft | 505 kts | 216° |
| 2026-04-30 21:19 | 46.45108 | 11.56124 | 31440 ft | 504 kts | 216° |
| 2026-04-30 21:19 | 46.42232 | 11.53104 | 31765 ft | 503 kts | 217° |
| 2026-04-30 21:19 | 46.39435 | 11.50171 | 32128 ft | 502 kts | 217° |
| 2026-04-30 21:20 | 46.36614 | 11.47214 | 32497 ft | 500 kts | 217° |
| 2026-04-30 21:20 | 46.33805 | 11.44271 | 32849 ft | 498 kts | 218° |
| 2026-04-30 21:20 | 46.30998 | 11.41334 | 33164 ft | 497 kts | 218° |
| 2026-04-30 21:20 | 46.28200 | 11.38407 | 33470 ft | 496 kts | 218° |
| 2026-04-30 21:21 | 46.25400 | 11.35478 | 33768 ft | 495 kts | 218° |
| 2026-04-30 21:21 | 46.22613 | 11.32539 | 34096 ft | 494 kts | 219° |
| 2026-04-30 21:21 | 46.17091 | 11.26661 | 34667 ft | 491 kts | 219° |
| 2026-04-30 21:22 | 46.14345 | 11.23730 | 34962 ft | 490 kts | 219° |
| 2026-04-30 21:22 | 46.06143 | 11.15035 | 35248 ft | 488 kts | 218° |
| 2026-04-30 21:23 | 46.03398 | 11.12145 | 35242 ft | 488 kts | 218° |
| 2026-04-30 21:23 | 45.95192 | 11.03512 | 35254 ft | 486 kts | 219° |
| 2026-04-30 21:24 | 45.89738 | 10.97784 | 35257 ft | 485 kts | 219° |
| 2026-04-30 21:24 | 45.84327 | 10.92126 | 35263 ft | 485 kts | 219° |
| 2026-04-30 21:25 | 45.76137 | 10.83587 | 35263 ft | 484 kts | 219° |
| 2026-04-30 21:26 | 45.67960 | 10.75079 | 35265 ft | 484 kts | 219° |
| 2026-04-30 21:27 | 45.59781 | 10.66625 | 35270 ft | 483 kts | 219° |
| 2026-04-30 21:27 | 45.54361 | 10.61034 | 35269 ft | 483 kts | 219° |
| 2026-04-30 21:28 | 45.46194 | 10.52617 | 35264 ft | 481 kts | 219° |
| 2026-04-30 21:29 | 45.38085 | 10.44302 | 35266 ft | 479 kts | 219° |
| 2026-04-30 21:30 | 45.24565 | 10.30518 | 35251 ft | 476 kts | 219° |
| 2026-04-30 21:31 | 45.11150 | 10.16896 | 35252 ft | 474 kts | 219° |
| 2026-04-30 21:32 | 45.03116 | 10.08782 | 35258 ft | 472 kts | 219° |
| 2026-04-30 21:32 | 44.97768 | 10.03399 | 35238 ft | 472 kts | 219° |
| 2026-04-30 21:33 | 44.89789 | 9.95369 | 35230 ft | 469 kts | 219° |
| 2026-04-30 21:34 | 44.84486 | 9.90038 | 35227 ft | 466 kts | 219° |
| 2026-04-30 21:34 | 44.76553 | 9.82092 | 35216 ft | 466 kts | 220° |
| 2026-04-30 21:35 | 44.71284 | 9.76831 | 35236 ft | 464 kts | 219° |
| 2026-04-30 21:35 | 44.66048 | 9.71616 | 35223 ft | 463 kts | 219° |
| 2026-04-30 21:36 | 44.60779 | 9.66391 | 35231 ft | 464 kts | 219° |
| 2026-04-30 21:37 | 44.50253 | 9.55964 | 35228 ft | 462 kts | 220° |
| 2026-04-30 21:37 | 44.44994 | 9.50774 | 35215 ft | 462 kts | 219° |
| 2026-04-30 21:38 | 44.39761 | 9.45624 | 35191 ft | 462 kts | 219° |
| 2026-04-30 21:38 | 44.34510 | 9.40454 | 35209 ft | 461 kts | 219° |
| 2026-04-30 21:39 | 44.29257 | 9.35301 | 35198 ft | 461 kts | 219° |
| 2026-04-30 21:39 | 44.23996 | 9.30163 | 35201 ft | 461 kts | 219° |
| 2026-04-30 21:40 | 44.18778 | 9.25081 | 35195 ft | 459 kts | 220° |
| 2026-04-30 21:40 | 44.13541 | 9.19985 | 35191 ft | 459 kts | 220° |
| 2026-04-30 21:41 | 44.08309 | 9.14886 | 35189 ft | 459 kts | 220° |
| 2026-04-30 21:41 | 44.03082 | 9.09804 | 35191 ft | 457 kts | 220° |
| 2026-04-30 21:42 | 43.97893 | 9.04795 | 35185 ft | 455 kts | 220° |
| 2026-04-30 21:42 | 43.92682 | 8.99776 | 35193 ft | 455 kts | 220° |
| 2026-04-30 21:43 | 43.88363 | 8.95617 | 35195 ft | 455 kts | 220° |
| 2026-04-30 21:43 | 43.82292 | 8.89782 | 35196 ft | 453 kts | 219° |
| 2026-04-30 21:44 | 43.77106 | 8.84810 | 35189 ft | 453 kts | 219° |
| 2026-04-30 21:44 | 43.71947 | 8.79870 | 35194 ft | 453 kts | 219° |
| 2026-04-30 21:45 | 43.66743 | 8.74965 | 35190 ft | 454 kts | 215° |
| 2026-04-30 21:45 | 43.60813 | 8.71757 | 35183 ft | 465 kts | 195° |
| 2026-04-30 21:46 | 43.54387 | 8.71161 | 35187 ft | 467 kts | 189° |
| 2026-04-30 21:46 | 43.51300 | 8.70063 | 35198 ft | 454 kts | 210° |
| 2026-04-30 21:46 | 43.48603 | 8.67854 | 35196 ft | 449 kts | 220° |
| 2026-04-30 21:47 | 43.43175 | 8.63481 | 35188 ft | 456 kts | 211° |
| 2026-04-30 21:47 | 43.38441 | 8.60258 | 35187 ft | 456 kts | 211° |
| 2026-04-30 21:48 | 43.35703 | 8.58105 | 35179 ft | 450 kts | 222° |
| 2026-04-30 21:48 | 43.33336 | 8.55314 | 35186 ft | 447 kts | 226° |
| 2026-04-30 21:48 | 43.28704 | 8.49599 | 35183 ft | 447 kts | 226° |
| 2026-04-30 21:49 | 43.24066 | 8.43875 | 35177 ft | 447 kts | 226° |
| 2026-04-30 21:49 | 43.19456 | 8.38206 | 35173 ft | 448 kts | 226° |
| 2026-04-30 21:50 | 43.14814 | 8.32519 | 35169 ft | 448 kts | 225° |
| 2026-04-30 21:50 | 43.10167 | 8.26842 | 35168 ft | 445 kts | 226° |
| 2026-04-30 21:51 | 43.05557 | 8.21229 | 35168 ft | 443 kts | 226° |
| 2026-04-30 21:51 | 43.00944 | 8.15619 | 35163 ft | 443 kts | 226° |
| 2026-04-30 21:52 | 42.96342 | 8.10032 | 35154 ft | 443 kts | 226° |
| 2026-04-30 21:52 | 42.91773 | 8.04483 | 35157 ft | 441 kts | 226° |
| 2026-04-30 21:53 | 42.87182 | 7.98931 | 35152 ft | 441 kts | 226° |
| 2026-04-30 21:53 | 42.82583 | 7.93398 | 35150 ft | 440 kts | 226° |
| 2026-04-30 21:54 | 42.78006 | 7.87892 | 35150 ft | 439 kts | 226° |
| 2026-04-30 21:54 | 42.73431 | 7.82381 | 35140 ft | 438 kts | 227° |
| 2026-04-30 21:55 | 42.68891 | 7.76929 | 35144 ft | 438 kts | 227° |
| 2026-04-30 21:55 | 42.64319 | 7.71458 | 35147 ft | 437 kts | 226° |
| 2026-04-30 21:56 | 42.59735 | 7.65987 | 35141 ft | 438 kts | 226° |
| 2026-04-30 21:56 | 42.55157 | 7.60530 | 35141 ft | 437 kts | 226° |
| 2026-04-30 21:57 | 42.50610 | 7.55118 | 35145 ft | 437 kts | 226° |
| 2026-04-30 21:57 | 42.46026 | 7.49677 | 35144 ft | 437 kts | 226° |
| 2026-04-30 21:58 | 42.41435 | 7.44243 | 35141 ft | 437 kts | 226° |
| 2026-04-30 21:58 | 42.36851 | 7.38823 | 35123 ft | 437 kts | 226° |
| 2026-04-30 21:59 | 42.32287 | 7.33432 | 35142 ft | 435 kts | 226° |
| 2026-04-30 22:00 | 42.25465 | 7.25395 | 35140 ft | 435 kts | 226° |
| 2026-04-30 22:00 | 42.18601 | 7.17354 | 35134 ft | 435 kts | 226° |
| 2026-04-30 22:01 | 42.14043 | 7.12016 | 35134 ft | 433 kts | 226° |
| 2026-04-30 22:01 | 42.09497 | 7.06699 | 35139 ft | 433 kts | 226° |
| 2026-04-30 22:02 | 42.04944 | 7.01392 | 35137 ft | 433 kts | 226° |
| 2026-04-30 22:02 | 42.00427 | 6.96108 | 35135 ft | 432 kts | 227° |
| 2026-04-30 22:03 | 41.95996 | 6.90684 | 35133 ft | 429 kts | 229° |
| 2026-04-30 22:03 | 41.91623 | 6.85251 | 35133 ft | 428 kts | 229° |
| 2026-04-30 22:04 | 41.87235 | 6.79840 | 35125 ft | 427 kts | 228° |
| 2026-04-30 22:05 | 41.80653 | 6.71812 | 35124 ft | 427 kts | 228° |
| 2026-04-30 22:05 | 41.76257 | 6.66470 | 35128 ft | 424 kts | 229° |
| 2026-04-30 22:06 | 41.71913 | 6.61194 | 35128 ft | 423 kts | 229° |
| 2026-04-30 22:06 | 41.65355 | 6.53246 | 35126 ft | 423 kts | 229° |
| 2026-04-30 22:07 | 41.61005 | 6.47999 | 35123 ft | 423 kts | 229° |
| 2026-04-30 22:07 | 41.56630 | 6.42719 | 35107 ft | 422 kts | 229° |
| 2026-04-30 22:08 | 41.52277 | 6.37461 | 35111 ft | 421 kts | 229° |
| 2026-04-30 22:08 | 41.47941 | 6.32244 | 35109 ft | 422 kts | 229° |
| 2026-04-30 22:09 | 41.43577 | 6.27007 | 35109 ft | 422 kts | 229° |
| 2026-04-30 22:09 | 41.39207 | 6.21786 | 35089 ft | 422 kts | 228° |
| 2026-04-30 22:10 | 41.34827 | 6.16564 | 35106 ft | 422 kts | 228° |
| 2026-04-30 22:10 | 41.30476 | 6.11366 | 35102 ft | 422 kts | 228° |
| 2026-04-30 22:11 | 41.23924 | 6.03573 | 35101 ft | 421 kts | 228° |
| 2026-04-30 22:12 | 41.19572 | 5.98396 | 35101 ft | 421 kts | 228° |
| 2026-04-30 22:12 | 41.15192 | 5.93192 | 35096 ft | 422 kts | 227° |
| 2026-04-30 22:13 | 41.10803 | 5.88005 | 35091 ft | 422 kts | 227° |
| 2026-04-30 22:13 | 41.06441 | 5.82860 | 35093 ft | 422 kts | 227° |
| 2026-04-30 22:14 | 41.02048 | 5.77684 | 35091 ft | 422 kts | 227° |
| 2026-04-30 22:14 | 40.97652 | 5.72516 | 35082 ft | 422 kts | 227° |
| 2026-04-30 22:15 | 40.93588 | 5.67003 | 35093 ft | 415 kts | 239° |
| 2026-04-30 22:15 | 40.91936 | 5.63920 | 34885 ft | 416 kts | 239° |
| 2026-04-30 22:15 | 40.90266 | 5.60786 | 34643 ft | 417 kts | 239° |
| 2026-04-30 22:15 | 40.88592 | 5.57647 | 34407 ft | 418 kts | 239° |
| 2026-04-30 22:16 | 40.86905 | 5.54494 | 34170 ft | 419 kts | 239° |
| 2026-04-30 22:16 | 40.85218 | 5.51344 | 33909 ft | 419 kts | 239° |
| 2026-04-30 22:17 | 40.80147 | 5.41929 | 33104 ft | 421 kts | 239° |
| 2026-04-30 22:17 | 40.78438 | 5.38765 | 32830 ft | 422 kts | 239° |
| 2026-04-30 22:17 | 40.75029 | 5.32450 | 32302 ft | 425 kts | 238° |
| 2026-04-30 22:18 | 40.73315 | 5.29280 | 32058 ft | 425 kts | 238° |
| 2026-04-30 22:18 | 40.69862 | 5.22895 | 31542 ft | 427 kts | 238° |
| 2026-04-30 22:19 | 40.66421 | 5.16546 | 31048 ft | 428 kts | 238° |
| 2026-04-30 22:19 | 40.64678 | 5.13338 | 30795 ft | 429 kts | 238° |
| 2026-04-30 22:19 | 40.61199 | 5.06939 | 30331 ft | 430 kts | 238° |
| 2026-04-30 22:20 | 40.59454 | 5.03732 | 30080 ft | 431 kts | 238° |
| 2026-04-30 22:20 | 40.55964 | 4.97335 | 29526 ft | 433 kts | 238° |
| 2026-04-30 22:20 | 40.54200 | 4.94111 | 29239 ft | 434 kts | 238° |
| 2026-04-30 22:21 | 40.52436 | 4.90890 | 28966 ft | 435 kts | 238° |
| 2026-04-30 22:21 | 40.50663 | 4.87655 | 28692 ft | 436 kts | 238° |
| 2026-04-30 22:21 | 40.48885 | 4.84415 | 28429 ft | 437 kts | 237° |
| 2026-04-30 22:21 | 40.47105 | 4.81178 | 27589 ft | 438 kts | 237° |
| 2026-04-30 22:22 | 40.45306 | 4.77908 | 26417 ft | 444 kts | 237° |
| 2026-04-30 22:22 | 40.43512 | 4.74647 | 25359 ft | 448 kts | 237° |
| 2026-04-30 22:22 | 40.41658 | 4.71279 | 24304 ft | 450 kts | 237° |
| 2026-04-30 22:22 | 40.39842 | 4.67983 | 23361 ft | 451 kts | 237° |
| 2026-04-30 22:23 | 40.38013 | 4.64668 | 22640 ft | 444 kts | 236° |
| 2026-04-30 22:23 | 40.36204 | 4.61400 | 22403 ft | 441 kts | 236° |
| 2026-04-30 22:23 | 40.34400 | 4.58143 | 22136 ft | 440 kts | 236° |
| 2026-04-30 22:23 | 40.32608 | 4.54904 | 21775 ft | 438 kts | 236° |
| 2026-04-30 22:24 | 40.30817 | 4.51669 | 21417 ft | 437 kts | 236° |
| 2026-04-30 22:24 | 40.29036 | 4.48453 | 21061 ft | 435 kts | 236° |
| 2026-04-30 22:24 | 40.27259 | 4.45245 | 20716 ft | 433 kts | 236° |
| 2026-04-30 22:24 | 40.25513 | 4.42102 | 20370 ft | 431 kts | 236° |
| 2026-04-30 22:25 | 40.23730 | 4.38894 | 20020 ft | 430 kts | 236° |
| 2026-04-30 22:25 | 40.21991 | 4.35772 | 19683 ft | 428 kts | 236° |
| 2026-04-30 22:25 | 40.20232 | 4.32627 | 19334 ft | 427 kts | 236° |
| 2026-04-30 22:25 | 40.18476 | 4.29490 | 18985 ft | 425 kts | 236° |
| 2026-04-30 22:26 | 40.14997 | 4.23260 | 18294 ft | 423 kts | 236° |
| 2026-04-30 22:26 | 40.13264 | 4.20162 | 17930 ft | 421 kts | 236° |
| 2026-04-30 22:26 | 40.11559 | 4.17116 | 17596 ft | 419 kts | 236° |
| 2026-04-30 22:27 | 40.09842 | 4.14047 | 17258 ft | 417 kts | 235° |
| 2026-04-30 22:27 | 40.08125 | 4.10987 | 16922 ft | 415 kts | 235° |
| 2026-04-30 22:27 | 40.04713 | 4.04923 | 16241 ft | 412 kts | 235° |
| 2026-04-30 22:28 | 40.01325 | 3.98917 | 15586 ft | 409 kts | 235° |
| 2026-04-30 22:28 | 39.99659 | 3.95963 | 15257 ft | 407 kts | 235° |
| 2026-04-30 22:29 | 39.94641 | 3.87082 | 14280 ft | 403 kts | 234° |
| 2026-04-30 22:29 | 39.92981 | 3.84147 | 13949 ft | 402 kts | 234° |
| 2026-04-30 22:30 | 39.86407 | 3.72572 | 12648 ft | 394 kts | 234° |
| 2026-04-30 22:31 | 39.81559 | 3.64049 | 11703 ft | 389 kts | 234° |
| 2026-04-30 22:32 | 39.76946 | 3.55969 | 11170 ft | 347 kts | 234° |
| 2026-04-30 22:32 | 39.74181 | 3.51142 | 10919 ft | 319 kts | 234° |
| 2026-04-30 22:33 | 39.70823 | 3.45295 | 10596 ft | 287 kts | 234° |
| 2026-04-30 22:33 | 39.68822 | 3.40974 | 10271 ft | 275 kts | 244° |
| 2026-04-30 22:34 | 39.66268 | 3.34311 | 9822 ft | 274 kts | 244° |
| 2026-04-30 22:35 | 39.64556 | 3.29888 | 9396 ft | 274 kts | 244° |
| 2026-04-30 22:36 | 39.61152 | 3.21091 | 8570 ft | 272 kts | 244° |
| 2026-04-30 22:36 | 39.60305 | 3.18897 | 8357 ft | 272 kts | 244° |
| 2026-04-30 22:37 | 39.57771 | 3.12361 | 7735 ft | 271 kts | 244° |
| 2026-04-30 22:37 | 39.56924 | 3.10182 | 7532 ft | 271 kts | 244° |
| 2026-04-30 22:37 | 39.55233 | 3.05838 | 7123 ft | 270 kts | 244° |
| 2026-04-30 22:38 | 39.53547 | 3.01495 | 6702 ft | 269 kts | 244° |
| 2026-04-30 22:38 | 39.51868 | 2.97183 | 6290 ft | 268 kts | 244° |
| 2026-04-30 22:39 | 39.51023 | 2.95020 | 6083 ft | 268 kts | 244° |
| 2026-04-30 22:39 | 39.48503 | 2.88557 | 5471 ft | 268 kts | 244° |
| 2026-04-30 22:40 | 39.45985 | 2.82144 | 4758 ft | 267 kts | 243° |
| 2026-04-30 22:41 | 39.43573 | 2.75639 | 4146 ft | 267 kts | 256° |
| 2026-04-30 22:41 | 39.43061 | 2.70848 | 3736 ft | 270 kts | 264° |
| 2026-04-30 22:42 | 39.42191 | 2.61345 | 3019 ft | 253 kts | 264° |
| 2026-04-30 22:43 | 39.41915 | 2.56961 | 2700 ft | 238 kts | 282° |
| 2026-04-30 22:43 | 39.43862 | 2.53998 | 2473 ft | 213 kts | 344° |
| 2026-04-30 22:44 | 39.46595 | 2.54518 | 2215 ft | 202 kts | 38° |
| 2026-04-30 22:45 | 39.49513 | 2.60110 | 1759 ft | 182 kts | 59° |
| 2026-04-30 22:45 | 39.50816 | 2.62851 | 1462 ft | 168 kts | 59° |
| 2026-04-30 22:46 | 39.52007 | 2.65361 | 1075 ft | 162 kts | 59° |
| 2026-04-30 22:47 | 39.54275 | 2.70129 | 238 ft | 154 kts | 59° |
| 2026-04-30 22:47 | 39.55325 | 2.72355 | 30 ft | 107 kts | 58° |
| 2026-04-30 22:48 | 39.55720 | 2.73264 | 30 ft | 26 kts | 87° |
| 2026-04-30 22:49 | 39.55593 | 2.73523 | 30 ft | 10 kts | 149° |
| 2026-04-30 22:49 | 39.55437 | 2.73454 | 30 ft | 11 kts | 204° |
| 2026-04-30 22:50 | 39.55145 | 2.73619 | 30 ft | 12 kts | 227° |
| 2026-04-30 22:51 | 39.55070 | 2.73533 | 30 ft | 4 kts | 165° |
| 2026-04-30 22:51 | 39.55053 | 2.73538 | 30 ft | 0 kts | 164° |